JST328 YSSY-YSCB
Flight info
| Callsign | JST328 |
|---|---|
| Flight time | 0h 30m |
| Altitude | 26000 |
| Route | WOL H65 CB |
| Aircraft | A20N/M-SDE2E3FGHIRWXY/LB1 |
Departure
| Time | 2026-04-24 01:56 |
|---|---|
| Airport | Sydney Kingsford Smith International Airport (YSSY) |
Arrival
| Time | 2026-04-24 02:27 |
|---|---|
| Airport | Canberra Airport (YSCB) |
| Time | Latitude | Longitude | Altitude | Speed | Heading |
|---|---|---|---|---|---|
| 2026-04-24 01:25 | -33.93562 | 151.17773 | 30 ft | 0 kts | 280° |
| 2026-04-24 01:42 | -33.93562 | 151.17775 | 30 ft | 1 kts | 280° |
| 2026-04-24 01:43 | -33.93564 | 151.17790 | 30 ft | 2 kts | 264° |
| 2026-04-24 01:43 | -33.93561 | 151.17806 | 30 ft | 2 kts | 245° |
| 2026-04-24 01:43 | -33.93554 | 151.17820 | 30 ft | 2 kts | 226° |
| 2026-04-24 01:43 | -33.93543 | 151.17831 | 30 ft | 2 kts | 208° |
| 2026-04-24 01:44 | -33.93530 | 151.17838 | 30 ft | 2 kts | 189° |
| 2026-04-24 01:44 | -33.93529 | 151.17839 | 30 ft | 0 kts | 189° |
| 2026-04-24 01:51 | -33.93545 | 151.17836 | 30 ft | 7 kts | 189° |
| 2026-04-24 01:51 | -33.93612 | 151.17818 | 30 ft | 12 kts | 200° |
| 2026-04-24 01:51 | -33.93665 | 151.17751 | 30 ft | 12 kts | 261° |
| 2026-04-24 01:52 | -33.93646 | 151.17644 | 29 ft | 14 kts | 304° |
| 2026-04-24 01:52 | -33.93540 | 151.17597 | 27 ft | 19 kts | 348° |
| 2026-04-24 01:52 | -33.93470 | 151.17585 | 28 ft | 0 kts | 359° |
| 2026-04-24 01:52 | -33.93466 | 151.17585 | 28 ft | 2 kts | 359° |
| 2026-04-24 01:53 | -33.93436 | 151.17588 | 29 ft | 8 kts | 6° |
| 2026-04-24 01:53 | -33.93378 | 151.17557 | 27 ft | 13 kts | 301° |
| 2026-04-24 01:53 | -33.93388 | 151.17464 | 20 ft | 11 kts | 255° |
| 2026-04-24 01:53 | -33.93395 | 151.17429 | 19 ft | 0 kts | 257° |
| 2026-04-24 01:55 | -33.93397 | 151.17420 | 19 ft | 4 kts | 257° |
| 2026-04-24 01:55 | -33.93409 | 151.17356 | 19 ft | 13 kts | 257° |
| 2026-04-24 01:55 | -33.93507 | 151.17306 | 16 ft | 22 kts | 167° |
| 2026-04-24 01:56 | -33.93842 | 151.17393 | 17 ft | 92 kts | 168° |
| 2026-04-24 01:56 | -33.94728 | 151.17614 | 26 ft | 164 kts | 168° |
| 2026-04-24 01:56 | -33.95993 | 151.17927 | 326 ft | 201 kts | 168° |
| 2026-04-24 01:56 | -33.97435 | 151.18165 | 1184 ft | 209 kts | 182° |
| 2026-04-24 01:57 | -33.98924 | 151.18008 | 2192 ft | 224 kts | 188° |
| 2026-04-24 01:57 | -34.00540 | 151.17768 | 3035 ft | 244 kts | 187° |
| 2026-04-24 01:57 | -34.02287 | 151.17633 | 3661 ft | 261 kts | 178° |
| 2026-04-24 01:57 | -34.04076 | 151.17965 | 4663 ft | 265 kts | 165° |
| 2026-04-24 01:58 | -34.05864 | 151.18558 | 5708 ft | 269 kts | 165° |
| 2026-04-24 01:58 | -34.07677 | 151.19163 | 6706 ft | 273 kts | 165° |
| 2026-04-24 01:58 | -34.09522 | 151.19779 | 7707 ft | 277 kts | 165° |
| 2026-04-24 01:58 | -34.11396 | 151.20405 | 8674 ft | 281 kts | 165° |
| 2026-04-24 01:59 | -34.13294 | 151.21039 | 9627 ft | 285 kts | 165° |
| 2026-04-24 01:59 | -34.15266 | 151.21697 | 10217 ft | 305 kts | 165° |
| 2026-04-24 01:59 | -34.17360 | 151.22360 | 10915 ft | 315 kts | 171° |
| 2026-04-24 01:59 | -34.19547 | 151.22302 | 11802 ft | 317 kts | 194° |
| 2026-04-24 02:00 | -34.21555 | 151.21203 | 12635 ft | 321 kts | 217° |
| 2026-04-24 02:00 | -34.23147 | 151.19300 | 13450 ft | 325 kts | 229° |
| 2026-04-24 02:00 | -34.24618 | 151.17203 | 14271 ft | 329 kts | 230° |
| 2026-04-24 02:00 | -34.26089 | 151.15063 | 15066 ft | 333 kts | 230° |
| 2026-04-24 02:01 | -34.27585 | 151.12901 | 15835 ft | 337 kts | 230° |
| 2026-04-24 02:01 | -34.29107 | 151.10725 | 16581 ft | 341 kts | 230° |
| 2026-04-24 02:01 | -34.30655 | 151.08530 | 17309 ft | 345 kts | 230° |
| 2026-04-24 02:01 | -34.32222 | 151.06315 | 18015 ft | 348 kts | 230° |
| 2026-04-24 02:02 | -34.33809 | 151.04078 | 18700 ft | 352 kts | 230° |
| 2026-04-24 02:02 | -34.35395 | 151.01840 | 19365 ft | 356 kts | 230° |
| 2026-04-24 02:02 | -34.37028 | 150.99567 | 20013 ft | 360 kts | 227° |
| 2026-04-24 02:02 | -34.38863 | 150.97484 | 20599 ft | 366 kts | 221° |
| 2026-04-24 02:03 | -34.42828 | 150.93210 | 21119 ft | 393 kts | 222° |
| 2026-04-24 02:03 | -34.44872 | 150.90994 | 21721 ft | 396 kts | 222° |
| 2026-04-24 02:03 | -34.46934 | 150.88757 | 22303 ft | 399 kts | 222° |
| 2026-04-24 02:04 | -34.49011 | 150.86503 | 22853 ft | 403 kts | 222° |
| 2026-04-24 02:04 | -34.51106 | 150.84226 | 23408 ft | 406 kts | 222° |
| 2026-04-24 02:04 | -34.53220 | 150.81928 | 23935 ft | 410 kts | 222° |
| 2026-04-24 02:04 | -34.55308 | 150.79552 | 24453 ft | 413 kts | 226° |
| 2026-04-24 02:05 | -34.57168 | 150.76881 | 24950 ft | 416 kts | 234° |
| 2026-04-24 02:05 | -34.58870 | 150.74033 | 25426 ft | 419 kts | 234° |
| 2026-04-24 02:05 | -34.60596 | 150.71165 | 25884 ft | 423 kts | 234° |
| 2026-04-24 02:05 | -34.62351 | 150.68257 | 26219 ft | 429 kts | 234° |
| 2026-04-24 02:06 | -34.64116 | 150.65330 | 26705 ft | 431 kts | 234° |
| 2026-04-24 02:06 | -34.65870 | 150.62420 | 27141 ft | 434 kts | 234° |
| 2026-04-24 02:06 | -34.67651 | 150.59458 | 27597 ft | 435 kts | 234° |
| 2026-04-24 02:06 | -34.69441 | 150.56479 | 27725 ft | 438 kts | 234° |
| 2026-04-24 02:07 | -34.71235 | 150.53491 | 27829 ft | 436 kts | 234° |
| 2026-04-24 02:07 | -34.73017 | 150.50519 | 27935 ft | 436 kts | 234° |
| 2026-04-24 02:07 | -34.74807 | 150.47532 | 27997 ft | 437 kts | 234° |
| 2026-04-24 02:07 | -34.76601 | 150.44536 | 27996 ft | 439 kts | 234° |
| 2026-04-24 02:08 | -34.78403 | 150.41522 | 27998 ft | 439 kts | 234° |
| 2026-04-24 02:08 | -34.80194 | 150.38526 | 28002 ft | 438 kts | 234° |
| 2026-04-24 02:08 | -34.81986 | 150.35525 | 27998 ft | 438 kts | 234° |
| 2026-04-24 02:08 | -34.83772 | 150.32532 | 27999 ft | 437 kts | 234° |
| 2026-04-24 02:09 | -34.84958 | 150.30543 | 27999 ft | 437 kts | 234° |
| 2026-04-24 02:09 | -34.87345 | 150.26537 | 28003 ft | 439 kts | 234° |
| 2026-04-24 02:09 | -34.90323 | 150.21531 | 28000 ft | 441 kts | 234° |
| 2026-04-24 02:10 | -34.92122 | 150.18504 | 27997 ft | 441 kts | 234° |
| 2026-04-24 02:10 | -34.93918 | 150.15479 | 27998 ft | 441 kts | 234° |
| 2026-04-24 02:10 | -34.97508 | 150.09425 | 28001 ft | 440 kts | 234° |
| 2026-04-24 02:11 | -34.99295 | 150.06407 | 27907 ft | 438 kts | 234° |
| 2026-04-24 02:11 | -35.01082 | 150.03388 | 27354 ft | 439 kts | 234° |
| 2026-04-24 02:11 | -35.02956 | 150.00439 | 26448 ft | 442 kts | 230° |
| 2026-04-24 02:11 | -35.04949 | 149.97517 | 25262 ft | 451 kts | 230° |
| 2026-04-24 02:12 | -35.06968 | 149.94561 | 24002 ft | 458 kts | 230° |
| 2026-04-24 02:12 | -35.09003 | 149.91579 | 22673 ft | 466 kts | 230° |
| 2026-04-24 02:12 | -35.11078 | 149.88534 | 21719 ft | 464 kts | 230° |
| 2026-04-24 02:12 | -35.13128 | 149.85519 | 20883 ft | 457 kts | 230° |
| 2026-04-24 02:13 | -35.15146 | 149.82548 | 20046 ft | 452 kts | 230° |
| 2026-04-24 02:13 | -35.17200 | 149.79682 | 19202 ft | 446 kts | 224° |
| 2026-04-24 02:13 | -35.19630 | 149.77365 | 18371 ft | 441 kts | 211° |
| 2026-04-24 02:13 | -35.22389 | 149.75786 | 17532 ft | 436 kts | 198° |
| 2026-04-24 02:14 | -35.25336 | 149.75033 | 16691 ft | 432 kts | 185° |
| 2026-04-24 02:14 | -35.28315 | 149.75159 | 15877 ft | 427 kts | 171° |
| 2026-04-24 02:14 | -35.31169 | 149.76069 | 15061 ft | 422 kts | 163° |
| 2026-04-24 02:14 | -35.33955 | 149.77135 | 14238 ft | 417 kts | 163° |
| 2026-04-24 02:15 | -35.36710 | 149.78190 | 13421 ft | 412 kts | 163° |
| 2026-04-24 02:15 | -35.39440 | 149.79235 | 12604 ft | 408 kts | 163° |
| 2026-04-24 02:15 | -35.42131 | 149.80265 | 11796 ft | 403 kts | 163° |
| 2026-04-24 02:15 | -35.44796 | 149.81284 | 11002 ft | 399 kts | 163° |
| 2026-04-24 02:16 | -35.47401 | 149.82280 | 10215 ft | 394 kts | 163° |
| 2026-04-24 02:16 | -35.50023 | 149.83282 | 9436 ft | 390 kts | 163° |
| 2026-04-24 02:16 | -35.52601 | 149.84267 | 8670 ft | 386 kts | 163° |
| 2026-04-24 02:16 | -35.55152 | 149.85227 | 7923 ft | 381 kts | 165° |
| 2026-04-24 02:17 | -35.57746 | 149.85499 | 7548 ft | 367 kts | 186° |
| 2026-04-24 02:17 | -35.60128 | 149.84704 | 7441 ft | 346 kts | 206° |
| 2026-04-24 02:17 | -35.61999 | 149.83000 | 7328 ft | 328 kts | 229° |
| 2026-04-24 02:17 | -35.63123 | 149.80673 | 7223 ft | 311 kts | 251° |
| 2026-04-24 02:18 | -35.63604 | 149.78153 | 7111 ft | 296 kts | 261° |
| 2026-04-24 02:18 | -35.63896 | 149.75705 | 6999 ft | 282 kts | 263° |
| 2026-04-24 02:18 | -35.63963 | 149.73364 | 6957 ft | 267 kts | 275° |
| 2026-04-24 02:18 | -35.63595 | 149.71158 | 6963 ft | 267 kts | 289° |
| 2026-04-24 02:19 | -35.62834 | 149.69069 | 6956 ft | 267 kts | 299° |
| 2026-04-24 02:19 | -35.61843 | 149.67151 | 6959 ft | 265 kts | 305° |
| 2026-04-24 02:19 | -35.60787 | 149.65392 | 6957 ft | 253 kts | 307° |
| 2026-04-24 02:19 | -35.59698 | 149.63682 | 6959 ft | 255 kts | 308° |
| 2026-04-24 02:20 | -35.58594 | 149.61967 | 6958 ft | 255 kts | 308° |
| 2026-04-24 02:20 | -35.57495 | 149.60253 | 6959 ft | 255 kts | 308° |
| 2026-04-24 02:20 | -35.56397 | 149.58534 | 6959 ft | 256 kts | 308° |
| 2026-04-24 02:20 | -35.55298 | 149.56806 | 6958 ft | 256 kts | 308° |
| 2026-04-24 02:21 | -35.54205 | 149.55083 | 6959 ft | 256 kts | 308° |
| 2026-04-24 02:21 | -35.53109 | 149.53354 | 6957 ft | 256 kts | 308° |
| 2026-04-24 02:21 | -35.52028 | 149.51650 | 6959 ft | 256 kts | 308° |
| 2026-04-24 02:21 | -35.50918 | 149.49901 | 6961 ft | 256 kts | 308° |
| 2026-04-24 02:22 | -35.49837 | 149.48200 | 6958 ft | 256 kts | 308° |
| 2026-04-24 02:22 | -35.48743 | 149.46478 | 6959 ft | 255 kts | 308° |
| 2026-04-24 02:22 | -35.47652 | 149.44762 | 6931 ft | 254 kts | 308° |
| 2026-04-24 02:22 | -35.46569 | 149.43059 | 6693 ft | 253 kts | 308° |
| 2026-04-24 02:23 | -35.45487 | 149.41358 | 6355 ft | 252 kts | 308° |
| 2026-04-24 02:23 | -35.44408 | 149.39663 | 6032 ft | 251 kts | 308° |
| 2026-04-24 02:23 | -35.43354 | 149.38009 | 5863 ft | 240 kts | 308° |
| 2026-04-24 02:23 | -35.42345 | 149.36449 | 5752 ft | 227 kts | 309° |
| 2026-04-24 02:24 | -35.41362 | 149.35002 | 5595 ft | 215 kts | 310° |
| 2026-04-24 02:24 | -35.40402 | 149.33612 | 5041 ft | 213 kts | 310° |
| 2026-04-24 02:24 | -35.39445 | 149.32226 | 4483 ft | 213 kts | 310° |
| 2026-04-24 02:24 | -35.38494 | 149.30844 | 3974 ft | 210 kts | 309° |
| 2026-04-24 02:25 | -35.37579 | 149.29507 | 4038 ft | 209 kts | 309° |
| 2026-04-24 02:25 | -35.36631 | 149.28120 | 4036 ft | 212 kts | 309° |
| 2026-04-24 02:25 | -35.35704 | 149.26758 | 4003 ft | 198 kts | 309° |
| 2026-04-24 02:25 | -35.34870 | 149.25522 | 3763 ft | 181 kts | 309° |
| 2026-04-24 02:26 | -35.34115 | 149.24364 | 3389 ft | 173 kts | 308° |
| 2026-04-24 02:26 | -35.33386 | 149.23211 | 2935 ft | 169 kts | 307° |
| 2026-04-24 02:26 | -35.32672 | 149.22120 | 2570 ft | 163 kts | 310° |
| 2026-04-24 02:26 | -35.31905 | 149.21106 | 2232 ft | 161 kts | 314° |
| 2026-04-24 02:27 | -35.31148 | 149.20120 | 1955 ft | 154 kts | 310° |
| 2026-04-24 02:27 | -35.30569 | 149.19238 | 1880 ft | 76 kts | 309° |
| 2026-04-24 02:27 | -35.30430 | 149.19036 | 1878 ft | 16 kts | 311° |
| 2026-04-24 02:27 | -35.30351 | 149.19037 | 1879 ft | 15 kts | 34° |
| 2026-04-24 02:28 | -35.30260 | 149.19130 | 1875 ft | 19 kts | 41° |
| 2026-04-24 02:28 | -35.30217 | 149.19175 | 1876 ft | 0 kts | 41° |
| 2026-04-24 02:29 | -35.30216 | 149.19176 | 1876 ft | 1 kts | 41° |
| 2026-04-24 02:30 | -35.30179 | 149.19215 | 1875 ft | 13 kts | 41° |
| 2026-04-24 02:30 | -35.30151 | 149.19303 | 1875 ft | 0 kts | 98° |
| 2026-04-24 02:30 | -35.30160 | 149.19331 | 1873 ft | 7 kts | 115° |
| 2026-04-24 02:30 | -35.30184 | 149.19407 | 1876 ft | 12 kts | 110° |
| 2026-04-24 02:31 | -35.30217 | 149.19515 | 1879 ft | 15 kts | 110° |
| 2026-04-24 02:31 | -35.30265 | 149.19649 | 1880 ft | 19 kts | 119° |
| 2026-04-24 02:31 | -35.30348 | 149.19783 | 1883 ft | 14 kts | 123° |
| 2026-04-24 02:31 | -35.30336 | 149.19818 | 1882 ft | 8 kts | 38° |
| 2026-04-24 02:32 | -35.30279 | 149.19864 | 1881 ft | 10 kts | 37° |
| 2026-04-24 02:32 | -35.30276 | 149.19867 | 1883 ft | 0 kts | 36° |